sensor_id;sensor_type;location;lat;lon;timestamp;P1;durP1;ratioP1;P2;durP2;ratioP2
4547;SDS011;2286;51.570;7.090;2023-02-28T00:02:26;6.47;;;4.00;;
4547;SDS011;2286;51.570;7.090;2023-02-28T00:04:53;4.60;;;4.20;;
4547;SDS011;2286;51.570;7.090;2023-02-28T00:07:26;4.88;;;4.47;;
4547;SDS011;2286;51.570;7.090;2023-02-28T00:09:53;5.40;;;4.90;;
4547;SDS011;2286;51.570;7.090;2023-02-28T00:12:22;8.57;;;4.40;;
4547;SDS011;2286;51.570;7.090;2023-02-28T00:14:49;5.80;;;4.70;;
4547;SDS011;2286;51.570;7.090;2023-02-28T00:17:16;5.63;;;5.05;;
4547;SDS011;2286;51.570;7.090;2023-02-28T00:19:46;5.85;;;5.13;;
4547;SDS011;2286;51.570;7.090;2023-02-28T00:22:14;5.57;;;4.55;;
4547;SDS011;2286;51.570;7.090;2023-02-28T00:24:41;10.43;;;6.15;;
4547;SDS011;2286;51.570;7.090;2023-02-28T00:27:08;5.82;;;4.32;;
4547;SDS011;2286;51.570;7.090;2023-02-28T00:29:37;7.95;;;4.93;;
4547;SDS011;2286;51.570;7.090;2023-02-28T00:32:04;4.78;;;4.35;;
4547;SDS011;2286;51.570;7.090;2023-02-28T00:34:32;9.70;;;4.60;;
4547;SDS011;2286;51.570;7.090;2023-02-28T00:37:02;6.68;;;4.30;;
4547;SDS011;2286;51.570;7.090;2023-02-28T00:39:30;5.60;;;4.72;;
4547;SDS011;2286;51.570;7.090;2023-02-28T00:41:59;7.88;;;4.63;;
4547;SDS011;2286;51.570;7.090;2023-02-28T00:44:27;6.32;;;4.78;;
4547;SDS011;2286;51.570;7.090;2023-02-28T00:46:56;4.60;;;4.20;;
4547;SDS011;2286;51.570;7.090;2023-02-28T00:49:23;5.30;;;3.85;;
4547;SDS011;2286;51.570;7.090;2023-02-28T00:51:51;6.28;;;4.30;;
4547;SDS011;2286;51.570;7.090;2023-02-28T00:54:19;6.15;;;4.80;;
4547;SDS011;2286;51.570;7.090;2023-02-28T00:56:46;7.20;;;4.45;;
4547;SDS011;2286;51.570;7.090;2023-02-28T00:59:13;5.13;;;4.72;;
4547;SDS011;2286;51.570;7.090;2023-02-28T01:01:42;5.22;;;4.00;;
4547;SDS011;2286;51.570;7.090;2023-02-28T01:04:11;7.15;;;3.90;;
4547;SDS011;2286;51.570;7.090;2023-02-28T01:06:39;4.78;;;3.67;;
4547;SDS011;2286;51.570;7.090;2023-02-28T01:09:06;5.57;;;4.00;;
4547;SDS011;2286;51.570;7.090;2023-02-28T01:11:33;5.40;;;4.47;;
4547;SDS011;2286;51.570;7.090;2023-02-28T01:14:01;5.47;;;4.00;;
4547;SDS011;2286;51.570;7.090;2023-02-28T01:16:29;5.38;;;3.78;;
4547;SDS011;2286;51.570;7.090;2023-02-28T01:18:56;4.97;;;3.70;;
4547;SDS011;2286;51.570;7.090;2023-02-28T01:21:25;5.15;;;3.95;;
4547;SDS011;2286;51.570;7.090;2023-02-28T01:23:52;8.13;;;4.05;;
4547;SDS011;2286;51.570;7.090;2023-02-28T01:26:22;7.85;;;4.07;;
4547;SDS011;2286;51.570;7.090;2023-02-28T01:28:49;4.90;;;4.10;;
4547;SDS011;2286;51.570;7.090;2023-02-28T01:31:17;5.78;;;4.32;;
4547;SDS011;2286;51.570;7.090;2023-02-28T01:33:46;5.32;;;4.00;;
4547;SDS011;2286;51.570;7.090;2023-02-28T01:36:14;4.88;;;3.58;;
4547;SDS011;2286;51.570;7.090;2023-02-28T01:38:44;6.47;;;3.75;;
4547;SDS011;2286;51.570;7.090;2023-02-28T01:41:14;4.65;;;3.38;;
4547;SDS011;2286;51.570;7.090;2023-02-28T01:43:53;7.28;;;3.75;;
4547;SDS011;2286;51.570;7.090;2023-02-28T01:46:23;4.25;;;3.85;;
4547;SDS011;2286;51.570;7.090;2023-02-28T01:48:51;6.00;;;4.60;;
4547;SDS011;2286;51.570;7.090;2023-02-28T01:51:22;8.60;;;4.10;;
4547;SDS011;2286;51.570;7.090;2023-02-28T01:53:54;4.80;;;3.63;;
4547;SDS011;2286;51.570;7.090;2023-02-28T01:56:25;5.90;;;3.78;;
4547;SDS011;2286;51.570;7.090;2023-02-28T01:58:55;4.70;;;4.40;;
4547;SDS011;2286;51.570;7.090;2023-02-28T02:01:23;7.32;;;3.95;;
4547;SDS011;2286;51.570;7.090;2023-02-28T02:03:53;4.10;;;3.72;;
4547;SDS011;2286;51.570;7.090;2023-02-28T02:06:22;4.60;;;4.05;;
4547;SDS011;2286;51.570;7.090;2023-02-28T02:08:51;4.63;;;4.15;;
4547;SDS011;2286;51.570;7.090;2023-02-28T02:11:20;6.78;;;4.07;;
4547;SDS011;2286;51.570;7.090;2023-02-28T02:14:00;5.30;;;4.22;;
4547;SDS011;2286;51.570;7.090;2023-02-28T02:16:53;4.28;;;3.72;;
4547;SDS011;2286;51.570;7.090;2023-02-28T02:19:50;4.55;;;4.15;;
4547;SDS011;2286;51.570;7.090;2023-02-28T02:25:33;5.93;;;5.10;;
4547;SDS011;2286;51.570;7.090;2023-02-28T02:28:11;5.50;;;4.43;;
4547;SDS011;2286;51.570;7.090;2023-02-28T02:30:54;5.40;;;4.90;;
4547;SDS011;2286;51.570;7.090;2023-02-28T02:36:36;4.75;;;4.25;;
4547;SDS011;2286;51.570;7.090;2023-02-28T02:39:06;5.30;;;4.80;;
4547;SDS011;2286;51.570;7.090;2023-02-28T02:41:41;5.07;;;4.25;;
4547;SDS011;2286;51.570;7.090;2023-02-28T02:44:13;6.70;;;5.10;;
4547;SDS011;2286;51.570;7.090;2023-02-28T02:46:47;4.90;;;4.50;;
4547;SDS011;2286;51.570;7.090;2023-02-28T02:49:19;5.30;;;4.82;;
4547;SDS011;2286;51.570;7.090;2023-02-28T02:51:48;8.25;;;5.50;;
4547;SDS011;2286;51.570;7.090;2023-02-28T02:54:17;5.50;;;5.00;;
4547;SDS011;2286;51.570;7.090;2023-02-28T02:56:48;6.90;;;5.47;;
4547;SDS011;2286;51.570;7.090;2023-02-28T02:59:18;6.55;;;4.95;;
4547;SDS011;2286;51.570;7.090;2023-02-28T03:01:48;7.00;;;5.20;;
4547;SDS011;2286;51.570;7.090;2023-02-28T03:04:19;5.57;;;5.05;;
4547;SDS011;2286;51.570;7.090;2023-02-28T03:06:50;7.00;;;4.88;;
4547;SDS011;2286;51.570;7.090;2023-02-28T03:09:19;5.60;;;5.05;;
4547;SDS011;2286;51.570;7.090;2023-02-28T03:11:46;5.65;;;4.35;;
4547;SDS011;2286;51.570;7.090;2023-02-28T03:14:18;4.70;;;4.30;;
4547;SDS011;2286;51.570;7.090;2023-02-28T03:19:51;5.85;;;4.90;;
4547;SDS011;2286;51.570;7.090;2023-02-28T03:25:18;6.18;;;4.55;;
4547;SDS011;2286;51.570;7.090;2023-02-28T03:27:53;3.90;;;3.60;;
4547;SDS011;2286;51.570;7.090;2023-02-28T03:30:28;5.68;;;4.25;;
4547;SDS011;2286;51.570;7.090;2023-02-28T03:33:03;4.90;;;4.38;;
4547;SDS011;2286;51.570;7.090;2023-02-28T03:35:37;4.35;;;4.05;;
4547;SDS011;2286;51.570;7.090;2023-02-28T03:38:08;6.80;;;4.53;;
4547;SDS011;2286;51.570;7.090;2023-02-28T03:40:39;4.80;;;4.00;;
4547;SDS011;2286;51.570;7.090;2023-02-28T03:43:12;5.03;;;4.60;;
4547;SDS011;2286;51.570;7.090;2023-02-28T03:45:44;8.00;;;4.25;;
4547;SDS011;2286;51.570;7.090;2023-02-28T03:48:15;5.95;;;3.97;;
4547;SDS011;2286;51.570;7.090;2023-02-28T03:50:48;6.22;;;4.10;;
4547;SDS011;2286;51.570;7.090;2023-02-28T03:53:19;5.25;;;4.40;;
4547;SDS011;2286;51.570;7.090;2023-02-28T03:55:49;5.25;;;4.20;;
4547;SDS011;2286;51.570;7.090;2023-02-28T03:58:21;4.68;;;4.00;;
4547;SDS011;2286;51.570;7.090;2023-02-28T04:00:55;5.63;;;3.97;;
4547;SDS011;2286;51.570;7.090;2023-02-28T04:03:32;4.60;;;4.03;;
4547;SDS011;2286;51.570;7.090;2023-02-28T04:06:01;4.55;;;3.75;;
4547;SDS011;2286;51.570;7.090;2023-02-28T04:08:28;6.20;;;4.30;;
4547;SDS011;2286;51.570;7.090;2023-02-28T04:10:56;4.35;;;3.95;;
4547;SDS011;2286;51.570;7.090;2023-02-28T04:13:27;6.72;;;4.13;;
4547;SDS011;2286;51.570;7.090;2023-02-28T04:15:54;5.75;;;4.30;;
4547;SDS011;2286;51.570;7.090;2023-02-28T04:18:21;4.90;;;4.07;;
4547;SDS011;2286;51.570;7.090;2023-02-28T04:20:48;5.80;;;4.75;;
4547;SDS011;2286;51.570;7.090;2023-02-28T04:23:16;4.72;;;4.25;;
4547;SDS011;2286;51.570;7.090;2023-02-28T04:25:43;4.72;;;3.80;;
4547;SDS011;2286;51.570;7.090;2023-02-28T04:28:10;6.88;;;4.18;;
4547;SDS011;2286;51.570;7.090;2023-02-28T04:30:37;5.00;;;4.43;;
4547;SDS011;2286;51.570;7.090;2023-02-28T04:33:05;5.40;;;4.85;;
4547;SDS011;2286;51.570;7.090;2023-02-28T04:35:32;8.55;;;4.63;;
4547;SDS011;2286;51.570;7.090;2023-02-28T04:37:59;6.50;;;4.93;;
4547;SDS011;2286;51.570;7.090;2023-02-28T04:40:27;4.80;;;3.75;;
4547;SDS011;2286;51.570;7.090;2023-02-28T04:42:54;5.85;;;4.03;;
4547;SDS011;2286;51.570;7.090;2023-02-28T04:45:21;4.57;;;3.53;;
4547;SDS011;2286;51.570;7.090;2023-02-28T04:47:48;5.00;;;4.20;;
4547;SDS011;2286;51.570;7.090;2023-02-28T04:50:15;4.53;;;3.85;;
4547;SDS011;2286;51.570;7.090;2023-02-28T04:52:42;6.40;;;3.50;;
4547;SDS011;2286;51.570;7.090;2023-02-28T04:55:09;4.47;;;3.95;;
4547;SDS011;2286;51.570;7.090;2023-02-28T04:57:38;4.18;;;3.25;;
4547;SDS011;2286;51.570;7.090;2023-02-28T05:00:08;4.07;;;3.40;;
4547;SDS011;2286;51.570;7.090;2023-02-28T05:02:36;3.92;;;3.63;;
4547;SDS011;2286;51.570;7.090;2023-02-28T05:05:04;3.88;;;3.45;;
4547;SDS011;2286;51.570;7.090;2023-02-28T05:07:31;6.05;;;2.95;;
4547;SDS011;2286;51.570;7.090;2023-02-28T05:09:58;3.40;;;3.10;;
4547;SDS011;2286;51.570;7.090;2023-02-28T05:12:25;3.40;;;3.10;;
4547;SDS011;2286;51.570;7.090;2023-02-28T05:14:53;4.45;;;3.30;;
4547;SDS011;2286;51.570;7.090;2023-02-28T05:17:21;4.00;;;3.30;;
4547;SDS011;2286;51.570;7.090;2023-02-28T05:19:48;4.25;;;3.40;;
4547;SDS011;2286;51.570;7.090;2023-02-28T05:22:15;3.78;;;3.20;;
4547;SDS011;2286;51.570;7.090;2023-02-28T05:24:42;4.85;;;3.60;;
4547;SDS011;2286;51.570;7.090;2023-02-28T05:27:09;2.80;;;2.55;;
4547;SDS011;2286;51.570;7.090;2023-02-28T05:29:37;3.08;;;2.80;;
4547;SDS011;2286;51.570;7.090;2023-02-28T05:32:09;3.90;;;3.30;;
4547;SDS011;2286;51.570;7.090;2023-02-28T05:34:37;3.50;;;2.72;;
4547;SDS011;2286;51.570;7.090;2023-02-28T05:37:04;4.28;;;3.03;;
4547;SDS011;2286;51.570;7.090;2023-02-28T05:39:32;3.55;;;3.25;;
4547;SDS011;2286;51.570;7.090;2023-02-28T05:41:59;4.22;;;3.20;;
4547;SDS011;2286;51.570;7.090;2023-02-28T05:44:26;3.28;;;2.92;;
4547;SDS011;2286;51.570;7.090;2023-02-28T05:46:53;4.93;;;3.58;;
4547;SDS011;2286;51.570;7.090;2023-02-28T05:49:21;4.60;;;3.45;;
4547;SDS011;2286;51.570;7.090;2023-02-28T05:51:48;3.22;;;2.92;;
4547;SDS011;2286;51.570;7.090;2023-02-28T05:54:15;3.50;;;3.20;;
4547;SDS011;2286;51.570;7.090;2023-02-28T05:56:42;6.32;;;3.50;;
4547;SDS011;2286;51.570;7.090;2023-02-28T05:59:10;5.47;;;3.78;;
4547;SDS011;2286;51.570;7.090;2023-02-28T06:01:38;3.65;;;3.28;;
4547;SDS011;2286;51.570;7.090;2023-02-28T06:04:07;4.32;;;3.80;;
4547;SDS011;2286;51.570;7.090;2023-02-28T06:06:36;4.70;;;3.45;;
4547;SDS011;2286;51.570;7.090;2023-02-28T06:09:04;4.32;;;3.20;;
4547;SDS011;2286;51.570;7.090;2023-02-28T06:11:31;4.25;;;3.38;;
4547;SDS011;2286;51.570;7.090;2023-02-28T06:13:59;9.02;;;3.60;;
4547;SDS011;2286;51.570;7.090;2023-02-28T06:16:26;3.40;;;3.10;;
4547;SDS011;2286;51.570;7.090;2023-02-28T06:18:54;6.90;;;3.85;;
4547;SDS011;2286;51.570;7.090;2023-02-28T06:21:22;3.80;;;3.50;;
4547;SDS011;2286;51.570;7.090;2023-02-28T06:23:51;3.97;;;3.63;;
4547;SDS011;2286;51.570;7.090;2023-02-28T06:26:18;4.75;;;3.55;;
4547;SDS011;2286;51.570;7.090;2023-02-28T06:28:46;6.97;;;4.13;;
4547;SDS011;2286;51.570;7.090;2023-02-28T06:31:15;3.65;;;3.35;;
4547;SDS011;2286;51.570;7.090;2023-02-28T06:33:44;5.03;;;4.47;;
4547;SDS011;2286;51.570;7.090;2023-02-28T06:36:12;6.03;;;3.83;;
4547;SDS011;2286;51.570;7.090;2023-02-28T06:38:40;4.03;;;3.60;;
4547;SDS011;2286;51.570;7.090;2023-02-28T06:41:08;4.55;;;4.13;;
4547;SDS011;2286;51.570;7.090;2023-02-28T06:43:37;4.78;;;4.28;;
4547;SDS011;2286;51.570;7.090;2023-02-28T06:46:07;5.28;;;4.78;;
4547;SDS011;2286;51.570;7.090;2023-02-28T06:48:35;7.55;;;5.10;;
4547;SDS011;2286;51.570;7.090;2023-02-28T06:51:03;6.72;;;4.40;;
4547;SDS011;2286;51.570;7.090;2023-02-28T06:53:31;7.55;;;4.40;;
4547;SDS011;2286;51.570;7.090;2023-02-28T06:55:58;6.32;;;4.90;;
4547;SDS011;2286;51.570;7.090;2023-02-28T06:58:26;9.52;;;5.30;;
4547;SDS011;2286;51.570;7.090;2023-02-28T07:00:53;7.95;;;4.95;;
4547;SDS011;2286;51.570;7.090;2023-02-28T07:03:21;8.15;;;5.05;;
4547;SDS011;2286;51.570;7.090;2023-02-28T07:05:48;6.25;;;4.80;;
4547;SDS011;2286;51.570;7.090;2023-02-28T07:08:15;4.47;;;4.07;;
4547;SDS011;2286;51.570;7.090;2023-02-28T07:10:42;4.70;;;4.20;;
4547;SDS011;2286;51.570;7.090;2023-02-28T07:13:10;9.25;;;4.88;;
4547;SDS011;2286;51.570;7.090;2023-02-28T07:15:39;5.20;;;4.70;;
4547;SDS011;2286;51.570;7.090;2023-02-28T07:18:06;5.40;;;4.90;;
4547;SDS011;2286;51.570;7.090;2023-02-28T07:20:33;7.82;;;4.90;;
4547;SDS011;2286;51.570;7.090;2023-02-28T07:23:00;6.07;;;4.47;;
4547;SDS011;2286;51.570;7.090;2023-02-28T07:25:27;8.95;;;5.13;;
4547;SDS011;2286;51.570;7.090;2023-02-28T07:27:54;6.82;;;5.25;;
4547;SDS011;2286;51.570;7.090;2023-02-28T07:30:24;7.40;;;5.38;;
4547;SDS011;2286;51.570;7.090;2023-02-28T07:32:52;9.30;;;6.18;;
4547;SDS011;2286;51.570;7.090;2023-02-28T07:35:21;8.77;;;5.75;;
4547;SDS011;2286;51.570;7.090;2023-02-28T07:37:48;8.93;;;6.20;;
4547;SDS011;2286;51.570;7.090;2023-02-28T07:40:15;7.63;;;5.30;;
4547;SDS011;2286;51.570;7.090;2023-02-28T07:42:43;6.35;;;5.35;;
4547;SDS011;2286;51.570;7.090;2023-02-28T07:45:10;21.83;;;5.97;;
4547;SDS011;2286;51.570;7.090;2023-02-28T07:47:37;7.15;;;5.75;;
4547;SDS011;2286;51.570;7.090;2023-02-28T07:50:06;6.90;;;5.07;;
4547;SDS011;2286;51.570;7.090;2023-02-28T07:52:35;7.68;;;4.57;;
4547;SDS011;2286;51.570;7.090;2023-02-28T07:55:03;6.85;;;5.10;;
4547;SDS011;2286;51.570;7.090;2023-02-28T07:57:31;6.55;;;5.03;;
4547;SDS011;2286;51.570;7.090;2023-02-28T07:59:58;16.65;;;5.88;;
4547;SDS011;2286;51.570;7.090;2023-02-28T08:02:25;5.25;;;4.85;;
4547;SDS011;2286;51.570;7.090;2023-02-28T08:04:52;7.32;;;5.70;;
4547;SDS011;2286;51.570;7.090;2023-02-28T08:07:20;5.38;;;4.88;;
4547;SDS011;2286;51.570;7.090;2023-02-28T08:09:47;6.10;;;4.90;;
4547;SDS011;2286;51.570;7.090;2023-02-28T08:12:14;6.22;;;4.28;;
4547;SDS011;2286;51.570;7.090;2023-02-28T08:14:41;7.32;;;5.00;;
4547;SDS011;2286;51.570;7.090;2023-02-28T08:17:09;4.75;;;3.85;;
4547;SDS011;2286;51.570;7.090;2023-02-28T08:19:36;4.75;;;4.28;;
4547;SDS011;2286;51.570;7.090;2023-02-28T08:22:03;3.95;;;3.63;;
4547;SDS011;2286;51.570;7.090;2023-02-28T08:24:33;6.28;;;3.75;;
4547;SDS011;2286;51.570;7.090;2023-02-28T08:26:59;5.00;;;3.92;;
4547;SDS011;2286;51.570;7.090;2023-02-28T08:29:26;9.40;;;4.60;;
4547;SDS011;2286;51.570;7.090;2023-02-28T08:31:55;4.95;;;4.00;;
4547;SDS011;2286;51.570;7.090;2023-02-28T08:34:23;5.13;;;4.10;;
4547;SDS011;2286;51.570;7.090;2023-02-28T08:36:50;3.67;;;3.38;;
4547;SDS011;2286;51.570;7.090;2023-02-28T08:39:18;3.88;;;3.47;;
4547;SDS011;2286;51.570;7.090;2023-02-28T08:41:46;5.82;;;3.97;;
4547;SDS011;2286;51.570;7.090;2023-02-28T08:44:13;9.00;;;3.50;;
4547;SDS011;2286;51.570;7.090;2023-02-28T08:46:40;4.28;;;3.15;;
4547;SDS011;2286;51.570;7.090;2023-02-28T08:49:07;5.20;;;3.08;;
4547;SDS011;2286;51.570;7.090;2023-02-28T08:51:36;3.97;;;3.22;;
4547;SDS011;2286;51.570;7.090;2023-02-28T08:54:05;2.70;;;2.50;;
4547;SDS011;2286;51.570;7.090;2023-02-28T08:56:32;5.18;;;2.38;;
4547;SDS011;2286;51.570;7.090;2023-02-28T08:59:00;5.00;;;2.95;;
4547;SDS011;2286;51.570;7.090;2023-02-28T09:01:27;2.83;;;2.60;;
4547;SDS011;2286;51.570;7.090;2023-02-28T09:03:55;2.78;;;2.28;;
4547;SDS011;2286;51.570;7.090;2023-02-28T09:06:23;3.58;;;2.35;;
4547;SDS011;2286;51.570;7.090;2023-02-28T09:08:51;4.72;;;2.42;;
4547;SDS011;2286;51.570;7.090;2023-02-28T09:11:19;3.25;;;2.90;;
4547;SDS011;2286;51.570;7.090;2023-02-28T09:13:46;5.18;;;3.00;;
4547;SDS011;2286;51.570;7.090;2023-02-28T09:16:15;3.40;;;2.63;;
4547;SDS011;2286;51.570;7.090;2023-02-28T09:18:42;2.85;;;2.38;;
4547;SDS011;2286;51.570;7.090;2023-02-28T09:21:11;2.30;;;1.95;;
4547;SDS011;2286;51.570;7.090;2023-02-28T09:23:39;2.88;;;1.90;;
4547;SDS011;2286;51.570;7.090;2023-02-28T09:26:06;4.57;;;2.28;;
4547;SDS011;2286;51.570;7.090;2023-02-28T09:28:34;4.65;;;2.20;;
4547;SDS011;2286;51.570;7.090;2023-02-28T09:31:01;2.33;;;2.13;;
4547;SDS011;2286;51.570;7.090;2023-02-28T09:33:31;2.20;;;2.00;;
4547;SDS011;2286;51.570;7.090;2023-02-28T09:35:59;2.42;;;2.03;;
4547;SDS011;2286;51.570;7.090;2023-02-28T09:38:28;2.55;;;2.35;;
4547;SDS011;2286;51.570;7.090;2023-02-28T09:40:56;2.15;;;1.95;;
4547;SDS011;2286;51.570;7.090;2023-02-28T09:43:26;2.08;;;1.45;;
4547;SDS011;2286;51.570;7.090;2023-02-28T09:45:56;2.75;;;1.80;;
4547;SDS011;2286;51.570;7.090;2023-02-28T09:48:33;2.95;;;2.10;;
4547;SDS011;2286;51.570;7.090;2023-02-28T09:51:04;5.45;;;2.45;;
4547;SDS011;2286;51.570;7.090;2023-02-28T09:53:36;4.00;;;2.67;;
4547;SDS011;2286;51.570;7.090;2023-02-28T09:56:05;2.70;;;2.13;;
4547;SDS011;2286;51.570;7.090;2023-02-28T09:58:37;2.37;;;1.80;;
4547;SDS011;2286;51.570;7.090;2023-02-28T10:01:09;4.27;;;2.00;;
4547;SDS011;2286;51.570;7.090;2023-02-28T10:03:46;2.30;;;1.90;;
4547;SDS011;2286;51.570;7.090;2023-02-28T10:06:21;4.00;;;2.60;;
4547;SDS011;2286;51.570;7.090;2023-02-28T10:08:55;2.37;;;1.90;;
4547;SDS011;2286;51.570;7.090;2023-02-28T10:11:26;6.73;;;1.67;;
4547;SDS011;2286;51.570;7.090;2023-02-28T10:13:54;2.07;;;1.87;;
4547;SDS011;2286;51.570;7.090;2023-02-28T10:16:29;2.97;;;1.60;;
4547;SDS011;2286;51.570;7.090;2023-02-28T10:19:02;2.57;;;1.70;;
4547;SDS011;2286;51.570;7.090;2023-02-28T10:21:34;2.73;;;2.03;;
4547;SDS011;2286;51.570;7.090;2023-02-28T10:24:04;3.13;;;1.90;;
4547;SDS011;2286;51.570;7.090;2023-02-28T10:26:43;2.10;;;1.90;;
4547;SDS011;2286;51.570;7.090;2023-02-28T10:29:12;3.57;;;2.07;;
4547;SDS011;2286;51.570;7.090;2023-02-28T10:31:39;3.80;;;2.47;;
4547;SDS011;2286;51.570;7.090;2023-02-28T10:34:08;2.10;;;1.57;;
4547;SDS011;2286;51.570;7.090;2023-02-28T10:36:38;1.90;;;1.80;;
4547;SDS011;2286;51.570;7.090;2023-02-28T10:42:03;1.93;;;1.83;;
4547;SDS011;2286;51.570;7.090;2023-02-28T10:44:31;1.50;;;1.40;;
4547;SDS011;2286;51.570;7.090;2023-02-28T10:46:58;1.60;;;1.50;;
4547;SDS011;2286;51.570;7.090;2023-02-28T10:49:28;2.90;;;1.70;;
4547;SDS011;2286;51.570;7.090;2023-02-28T10:51:56;3.27;;;1.40;;
4547;SDS011;2286;51.570;7.090;2023-02-28T10:54:27;2.00;;;1.43;;
4547;SDS011;2286;51.570;7.090;2023-02-28T10:57:06;1.53;;;1.40;;
4547;SDS011;2286;51.570;7.090;2023-02-28T10:59:35;1.70;;;1.37;;
4547;SDS011;2286;51.570;7.090;2023-02-28T11:02:07;1.53;;;1.20;;
4547;SDS011;2286;51.570;7.090;2023-02-28T11:05:01;2.30;;;1.37;;
4547;SDS011;2286;51.570;7.090;2023-02-28T11:07:29;1.70;;;1.33;;
4547;SDS011;2286;51.570;7.090;2023-02-28T11:09:56;1.30;;;1.20;;
4547;SDS011;2286;51.570;7.090;2023-02-28T11:12:25;1.63;;;1.40;;
4547;SDS011;2286;51.570;7.090;2023-02-28T11:14:56;2.53;;;1.50;;
4547;SDS011;2286;51.570;7.090;2023-02-28T11:17:26;1.57;;;1.43;;
4547;SDS011;2286;51.570;7.090;2023-02-28T11:19:56;1.63;;;1.40;;
4547;SDS011;2286;51.570;7.090;2023-02-28T11:22:29;1.93;;;1.83;;
4547;SDS011;2286;51.570;7.090;2023-02-28T11:25:01;2.20;;;1.40;;
4547;SDS011;2286;51.570;7.090;2023-02-28T11:27:43;5.40;;;1.90;;
4547;SDS011;2286;51.570;7.090;2023-02-28T11:30:23;3.00;;;1.73;;
4547;SDS011;2286;51.570;7.090;2023-02-28T11:32:52;2.60;;;1.87;;
4547;SDS011;2286;51.570;7.090;2023-02-28T11:35:21;1.57;;;1.47;;
4547;SDS011;2286;51.570;7.090;2023-02-28T11:37:56;2.37;;;1.43;;
4547;SDS011;2286;51.570;7.090;2023-02-28T11:40:25;1.57;;;1.47;;
4547;SDS011;2286;51.570;7.090;2023-02-28T11:43:00;1.33;;;1.23;;
4547;SDS011;2286;51.570;7.090;2023-02-28T11:45:44;2.23;;;1.90;;
4547;SDS011;2286;51.570;7.090;2023-02-28T11:48:21;1.40;;;1.30;;
4547;SDS011;2286;51.570;7.090;2023-02-28T11:50:54;2.17;;;1.97;;
4547;SDS011;2286;51.570;7.090;2023-02-28T11:53:39;1.63;;;1.53;;
4547;SDS011;2286;51.570;7.090;2023-02-28T11:56:30;2.30;;;1.70;;
4547;SDS011;2286;51.570;7.090;2023-02-28T11:59:06;1.63;;;1.53;;
4547;SDS011;2286;51.570;7.090;2023-02-28T12:02:08;2.73;;;1.60;;
4547;SDS011;2286;51.570;7.090;2023-02-28T12:05:04;4.17;;;1.77;;
4547;SDS011;2286;51.570;7.090;2023-02-28T12:07:42;2.23;;;1.63;;
4547;SDS011;2286;51.570;7.090;2023-02-28T12:10:21;2.43;;;1.47;;
4547;SDS011;2286;51.570;7.090;2023-02-28T12:12:54;1.80;;;1.70;;
4547;SDS011;2286;51.570;7.090;2023-02-28T12:15:38;4.30;;;1.67;;
4547;SDS011;2286;51.570;7.090;2023-02-28T12:18:40;2.40;;;1.63;;
4547;SDS011;2286;51.570;7.090;2023-02-28T12:21:18;2.30;;;1.97;;
4547;SDS011;2286;51.570;7.090;2023-02-28T12:23:57;1.70;;;1.60;;
4547;SDS011;2286;51.570;7.090;2023-02-28T12:26:36;1.60;;;1.50;;
4547;SDS011;2286;51.570;7.090;2023-02-28T12:29:14;2.50;;;1.80;;
4547;SDS011;2286;51.570;7.090;2023-02-28T12:31:45;4.43;;;2.60;;
4547;SDS011;2286;51.570;7.090;2023-02-28T12:34:16;2.37;;;1.93;;
4547;SDS011;2286;51.570;7.090;2023-02-28T12:36:48;1.53;;;1.40;;
4547;SDS011;2286;51.570;7.090;2023-02-28T12:39:18;2.10;;;2.00;;
4547;SDS011;2286;51.570;7.090;2023-02-28T12:41:53;1.90;;;1.80;;
4547;SDS011;2286;51.570;7.090;2023-02-28T12:44:26;2.00;;;1.90;;
4547;SDS011;2286;51.570;7.090;2023-02-28T12:46:58;2.13;;;2.03;;
4547;SDS011;2286;51.570;7.090;2023-02-28T12:49:30;1.73;;;1.63;;
4547;SDS011;2286;51.570;7.090;2023-02-28T12:52:00;2.13;;;1.83;;
4547;SDS011;2286;51.570;7.090;2023-02-28T12:54:29;2.60;;;2.13;;
4547;SDS011;2286;51.570;7.090;2023-02-28T12:57:05;2.27;;;2.07;;
4547;SDS011;2286;51.570;7.090;2023-02-28T12:59:37;2.00;;;1.90;;
4547;SDS011;2286;51.570;7.090;2023-02-28T13:02:29;1.90;;;1.63;;
4547;SDS011;2286;51.570;7.090;2023-02-28T13:05:19;4.57;;;1.90;;
4547;SDS011;2286;51.570;7.090;2023-02-28T13:08:08;2.07;;;1.97;;
4547;SDS011;2286;51.570;7.090;2023-02-28T13:10:56;2.27;;;1.73;;
4547;SDS011;2286;51.570;7.090;2023-02-28T13:13:25;4.30;;;1.47;;
4547;SDS011;2286;51.570;7.090;2023-02-28T13:15:58;3.90;;;1.57;;
4547;SDS011;2286;51.570;7.090;2023-02-28T13:18:28;2.47;;;1.63;;
4547;SDS011;2286;51.570;7.090;2023-02-28T13:20:58;2.33;;;1.90;;
4547;SDS011;2286;51.570;7.090;2023-02-28T13:23:39;1.83;;;1.40;;
4547;SDS011;2286;51.570;7.090;2023-02-28T13:26:24;2.40;;;1.30;;
4547;SDS011;2286;51.570;7.090;2023-02-28T13:29:31;2.33;;;1.63;;
4547;SDS011;2286;51.570;7.090;2023-02-28T13:32:19;2.53;;;2.33;;
4547;SDS011;2286;51.570;7.090;2023-02-28T13:38:01;2.90;;;1.90;;
4547;SDS011;2286;51.570;7.090;2023-02-28T13:40:50;2.40;;;1.50;;
4547;SDS011;2286;51.570;7.090;2023-02-28T13:43:17;2.07;;;1.33;;
4547;SDS011;2286;51.570;7.090;2023-02-28T13:46:05;1.83;;;1.73;;
4547;SDS011;2286;51.570;7.090;2023-02-28T13:48:36;1.67;;;1.50;;
4547;SDS011;2286;51.570;7.090;2023-02-28T13:54:07;1.90;;;1.80;;
4547;SDS011;2286;51.570;7.090;2023-02-28T13:56:45;2.60;;;1.80;;
4547;SDS011;2286;51.570;7.090;2023-02-28T13:59:21;2.57;;;1.87;;
4547;SDS011;2286;51.570;7.090;2023-02-28T14:02:01;1.73;;;1.63;;
4547;SDS011;2286;51.570;7.090;2023-02-28T14:07:41;2.70;;;2.50;;
4547;SDS011;2286;51.570;7.090;2023-02-28T14:10:19;1.90;;;1.80;;
4547;SDS011;2286;51.570;7.090;2023-02-28T14:12:58;2.13;;;1.70;;
4547;SDS011;2286;51.570;7.090;2023-02-28T14:15:35;2.10;;;1.83;;
4547;SDS011;2286;51.570;7.090;2023-02-28T14:18:27;2.13;;;1.83;;
4547;SDS011;2286;51.570;7.090;2023-02-28T14:21:08;2.50;;;2.10;;
4547;SDS011;2286;51.570;7.090;2023-02-28T14:30:10;2.53;;;1.70;;
4547;SDS011;2286;51.570;7.090;2023-02-28T14:32:58;1.83;;;1.73;;
4547;SDS011;2286;51.570;7.090;2023-02-28T14:35:45;2.17;;;1.97;;
4547;SDS011;2286;51.570;7.090;2023-02-28T14:38:21;3.37;;;2.57;;
4547;SDS011;2286;51.570;7.090;2023-02-28T14:40:51;1.77;;;1.67;;
4547;SDS011;2286;51.570;7.090;2023-02-28T14:43:21;3.40;;;2.50;;
4547;SDS011;2286;51.570;7.090;2023-02-28T14:45:50;2.40;;;2.20;;
4547;SDS011;2286;51.570;7.090;2023-02-28T14:48:20;3.60;;;2.20;;
4547;SDS011;2286;51.570;7.090;2023-02-28T14:50:51;1.83;;;1.73;;
4547;SDS011;2286;51.570;7.090;2023-02-28T14:53:20;2.50;;;1.93;;
4547;SDS011;2286;51.570;7.090;2023-02-28T14:55:49;2.97;;;2.13;;
4547;SDS011;2286;51.570;7.090;2023-02-28T14:58:24;4.90;;;2.63;;
4547;SDS011;2286;51.570;7.090;2023-02-28T15:00:53;1.93;;;1.83;;
4547;SDS011;2286;51.570;7.090;2023-02-28T15:03:22;2.20;;;2.00;;
4547;SDS011;2286;51.570;7.090;2023-02-28T15:05:53;2.03;;;1.93;;
4547;SDS011;2286;51.570;7.090;2023-02-28T15:08:20;2.93;;;2.20;;
4547;SDS011;2286;51.570;7.090;2023-02-28T15:10:52;2.90;;;2.60;;
4547;SDS011;2286;51.570;7.090;2023-02-28T15:13:21;2.00;;;1.90;;
4547;SDS011;2286;51.570;7.090;2023-02-28T15:15:50;3.70;;;2.47;;
4547;SDS011;2286;51.570;7.090;2023-02-28T15:18:23;2.13;;;1.70;;
4547;SDS011;2286;51.570;7.090;2023-02-28T15:20:57;2.10;;;2.00;;
4547;SDS011;2286;51.570;7.090;2023-02-28T15:23:29;3.37;;;2.07;;
4547;SDS011;2286;51.570;7.090;2023-02-28T15:25:57;2.27;;;2.07;;
4547;SDS011;2286;51.570;7.090;2023-02-28T15:28:25;2.97;;;2.10;;
4547;SDS011;2286;51.570;7.090;2023-02-28T15:30:53;2.07;;;1.90;;
4547;SDS011;2286;51.570;7.090;2023-02-28T15:33:22;2.47;;;2.07;;
4547;SDS011;2286;51.570;7.090;2023-02-28T15:35:50;2.47;;;2.27;;
4547;SDS011;2286;51.570;7.090;2023-02-28T15:38:21;2.47;;;2.10;;
4547;SDS011;2286;51.570;7.090;2023-02-28T15:40:50;2.87;;;2.67;;
4547;SDS011;2286;51.570;7.090;2023-02-28T15:43:25;2.10;;;2.00;;
4547;SDS011;2286;51.570;7.090;2023-02-28T15:45:55;2.70;;;2.50;;
4547;SDS011;2286;51.570;7.090;2023-02-28T15:48:24;2.63;;;2.40;;
4547;SDS011;2286;51.570;7.090;2023-02-28T15:50:55;3.60;;;2.53;;
4547;SDS011;2286;51.570;7.090;2023-02-28T15:53:25;2.70;;;2.50;;
4547;SDS011;2286;51.570;7.090;2023-02-28T15:55:57;2.37;;;2.17;;
4547;SDS011;2286;51.570;7.090;2023-02-28T15:58:27;3.17;;;2.33;;
4547;SDS011;2286;51.570;7.090;2023-02-28T16:01:03;5.00;;;2.20;;
4547;SDS011;2286;51.570;7.090;2023-02-28T16:03:38;2.10;;;2.00;;
4547;SDS011;2286;51.570;7.090;2023-02-28T16:09:08;2.57;;;2.37;;
4547;SDS011;2286;51.570;7.090;2023-02-28T16:11:38;4.87;;;3.13;;
4547;SDS011;2286;51.570;7.090;2023-02-28T16:14:08;2.73;;;2.33;;